createdAt,value
2022-12-20T00:00:20.814Z,27.65
2022-12-20T00:02:49.041Z,28.63
2022-12-20T00:05:17.292Z,28.95
2022-12-20T00:07:45.413Z,30.05
2022-12-20T00:10:13.546Z,30.08
2022-12-20T00:12:41.587Z,28.02
2022-12-20T00:15:10.338Z,30.02
2022-12-20T00:17:39.811Z,29.42
2022-12-20T00:20:09.418Z,24.80
2022-12-20T00:22:37.568Z,26.10
2022-12-20T00:25:06.477Z,23.17
2022-12-20T00:27:34.570Z,22.23
2022-12-20T00:30:02.593Z,22.60
2022-12-20T00:32:30.702Z,19.88
2022-12-20T00:35:00.089Z,22.33
2022-12-20T00:37:29.241Z,23.00
2022-12-20T00:39:57.308Z,22.02
2022-12-20T00:42:25.351Z,23.35
2022-12-20T00:44:53.404Z,23.58
2022-12-20T00:47:21.525Z,19.33
2022-12-20T00:49:49.878Z,19.17
2022-12-20T00:52:19.450Z,19.35
2022-12-20T00:54:47.538Z,18.83
2022-12-20T00:57:15.559Z,20.50
2022-12-20T00:59:43.568Z,19.35
2022-12-20T01:02:11.729Z,19.42
2022-12-20T01:04:39.872Z,20.90
2022-12-20T01:07:07.998Z,20.27
2022-12-20T01:09:37.349Z,20.27
2022-12-20T01:12:05.536Z,19.83
2022-12-20T01:14:33.550Z,17.77
2022-12-20T01:17:02.269Z,19.35
2022-12-20T01:19:30.454Z,19.52
2022-12-20T01:21:58.441Z,25.65
2022-12-20T01:24:26.595Z,18.42
2022-12-20T01:26:56.058Z,22.10
2022-12-20T01:29:24.192Z,18.70
2022-12-20T01:31:53.798Z,19.13
2022-12-20T01:34:21.946Z,19.80
2022-12-20T01:36:50.506Z,18.30
2022-12-20T01:39:19.162Z,20.00
2022-12-20T01:41:47.500Z,19.73
2022-12-20T01:44:56.289Z,16.45
2022-12-20T01:47:26.183Z,17.92
2022-12-20T01:49:57.710Z,17.98
2022-12-20T01:52:30.330Z,17.05
2022-12-20T01:55:05.270Z,15.77
2022-12-20T01:57:39.346Z,17.80
2022-12-20T02:00:10.852Z,16.23
2022-12-20T02:02:42.629Z,17.27
2022-12-20T02:05:14.572Z,21.85
2022-12-20T02:07:48.475Z,16.05
2022-12-20T02:10:18.796Z,16.38
2022-12-20T02:12:48.323Z,17.48
2022-12-20T02:15:33.187Z,16.17
2022-12-20T02:18:20.308Z,15.95
2022-12-20T02:21:21.113Z,16.42
2022-12-20T02:24:20.531Z,19.23
2022-12-20T02:27:25.840Z,19.10
2022-12-20T02:30:12.071Z,18.00
2022-12-20T02:32:45.596Z,17.48
2022-12-20T02:35:20.207Z,18.05
2022-12-20T02:37:50.669Z,17.60
2022-12-20T02:40:22.831Z,18.58
2022-12-20T02:42:54.692Z,17.95
2022-12-20T02:45:27.576Z,17.85
2022-12-20T02:48:00.918Z,16.38
2022-12-20T02:50:35.827Z,18.45
2022-12-20T02:53:04.296Z,17.42
2022-12-20T02:55:42.128Z,16.13
2022-12-20T02:58:18.709Z,18.48
2022-12-20T03:00:50.411Z,16.60
2022-12-20T03:03:25.220Z,17.98
2022-12-20T03:05:56.498Z,17.83
2022-12-20T03:08:25.179Z,20.10
2022-12-20T03:10:54.700Z,16.27
2022-12-20T03:13:24.091Z,17.65
2022-12-20T03:15:58.925Z,16.02
2022-12-20T03:18:27.297Z,15.95
2022-12-20T03:20:55.474Z,15.40
2022-12-20T03:23:23.561Z,15.77
2022-12-20T03:25:51.680Z,15.90
2022-12-20T03:28:31.115Z,16.52
2022-12-20T03:31:00.643Z,15.60
2022-12-20T03:33:29.228Z,19.42
2022-12-20T03:35:59.401Z,15.27
2022-12-20T03:38:27.442Z,17.30
2022-12-20T03:40:55.468Z,16.25
2022-12-20T03:43:24.024Z,18.55
2022-12-20T03:45:52.388Z,18.20
2022-12-20T03:48:23.568Z,19.33
2022-12-20T03:50:51.652Z,19.00
2022-12-20T03:53:19.678Z,21.13
2022-12-20T03:55:47.808Z,19.70
2022-12-20T03:58:16.931Z,21.52
2022-12-20T04:00:44.978Z,22.42
2022-12-20T04:03:32.735Z,15.88
2022-12-20T04:06:00.824Z,16.75
2022-12-20T04:08:29.589Z,17.15
2022-12-20T04:11:18.491Z,17.73
2022-12-20T04:14:06.921Z,21.20
2022-12-20T04:16:35.394Z,19.35
2022-12-20T04:19:05.004Z,20.92
2022-12-20T04:21:38.612Z,16.67
2022-12-20T04:24:07.275Z,16.98
2022-12-20T04:26:49.231Z,17.00
2022-12-20T04:29:18.221Z,17.13
2022-12-20T04:31:47.388Z,19.70
2022-12-20T04:34:17.381Z,16.98
2022-12-20T04:36:45.538Z,18.05
2022-12-20T04:39:20.291Z,16.65
2022-12-20T04:42:17.338Z,16.95
2022-12-20T04:44:45.714Z,21.52
2022-12-20T04:47:16.154Z,19.33
2022-12-20T04:49:46.352Z,18.23
2022-12-20T04:52:31.873Z,18.95
2022-12-20T04:54:59.932Z,18.63
2022-12-20T04:57:31.904Z,18.65
2022-12-20T05:00:00.729Z,18.30
2022-12-20T05:02:29.251Z,18.42
2022-12-20T05:05:05.386Z,21.23
2022-12-20T05:07:39.400Z,17.33
2022-12-20T05:10:08.403Z,19.10
2022-12-20T05:12:36.583Z,18.55
2022-12-20T05:15:07.454Z,19.30
2022-12-20T05:17:35.816Z,18.60
2022-12-20T05:20:07.859Z,20.50
2022-12-20T05:22:53.604Z,25.42
2022-12-20T05:25:39.082Z,25.13
2022-12-20T05:28:09.054Z,20.40
2022-12-20T05:30:38.501Z,24.83
2022-12-20T05:33:07.037Z,24.48
2022-12-20T05:35:36.828Z,25.30
2022-12-20T05:38:09.184Z,25.63
2022-12-20T05:40:38.054Z,25.30
2022-12-20T05:43:06.553Z,23.15
2022-12-20T05:45:47.263Z,23.67
2022-12-20T05:48:17.850Z,25.52
2022-12-20T05:50:48.178Z,23.02
2022-12-20T05:53:42.520Z,21.70
2022-12-20T05:56:10.687Z,21.15
2022-12-20T05:58:40.305Z,23.85
2022-12-20T06:01:10.328Z,22.75
2022-12-20T06:03:41.084Z,21.88
2022-12-20T06:06:17.116Z,20.67
2022-12-20T06:08:48.043Z,21.95
2022-12-20T06:11:29.373Z,20.17
2022-12-20T06:14:04.437Z,22.45
2022-12-20T06:16:32.883Z,23.42
2022-12-20T06:19:01.363Z,23.30
2022-12-20T06:21:32.078Z,23.27
2022-12-20T06:24:01.521Z,22.88
2022-12-20T06:26:35.982Z,21.40
2022-12-20T06:29:07.123Z,19.88
2022-12-20T06:31:39.724Z,18.02
2022-12-20T06:34:36.288Z,22.95
2022-12-20T06:37:05.674Z,19.02
2022-12-20T06:39:35.880Z,19.67
2022-12-20T06:42:06.903Z,22.67
2022-12-20T06:44:36.595Z,20.52
2022-12-20T06:47:04.982Z,24.27
2022-12-20T06:49:33.098Z,21.20
2022-12-20T06:52:02.249Z,25.83
2022-12-20T06:54:41.982Z,18.75
2022-12-20T06:57:10.437Z,19.88
2022-12-20T06:59:39.473Z,21.77
2022-12-20T07:02:09.117Z,18.48
2022-12-20T07:04:37.775Z,24.50
2022-12-20T07:07:06.019Z,20.05
2022-12-20T07:09:34.281Z,20.33
2022-12-20T07:12:03.590Z,20.15
2022-12-20T07:14:31.688Z,19.02
2022-12-20T07:16:59.792Z,19.48
2022-12-20T07:19:28.037Z,19.58
2022-12-20T07:21:56.492Z,22.75
2022-12-20T07:24:24.660Z,18.58
2022-12-20T07:26:54.129Z,18.52
2022-12-20T07:29:23.484Z,17.70
2022-12-20T07:31:51.497Z,20.42
2022-12-20T07:34:19.845Z,21.38
2022-12-20T07:36:47.904Z,22.40
2022-12-20T07:39:16.065Z,19.30
2022-12-20T07:41:44.085Z,19.70
2022-12-20T07:44:17.397Z,21.13
2022-12-20T07:46:46.789Z,20.30
2022-12-20T07:49:15.207Z,20.73
2022-12-20T07:51:48.059Z,21.10
2022-12-20T07:54:19.786Z,21.48
2022-12-20T07:56:51.325Z,20.77
2022-12-20T07:59:29.491Z,21.75
2022-12-20T08:02:04.316Z,20.25
2022-12-20T08:04:34.745Z,24.58
2022-12-20T08:07:03.882Z,26.13
2022-12-20T08:09:36.114Z,23.27
2022-12-20T08:12:04.484Z,21.77
2022-12-20T08:14:33.145Z,23.77
2022-12-20T08:17:02.611Z,25.98
2022-12-20T08:19:32.960Z,23.77
2022-12-20T08:22:01.721Z,24.25
2022-12-20T08:24:29.753Z,24.38
2022-12-20T08:26:57.890Z,21.10
2022-12-20T08:29:25.935Z,22.98
2022-12-20T08:31:53.933Z,25.75
2022-12-20T08:34:23.277Z,24.65
2022-12-20T08:36:52.054Z,23.10
2022-12-20T08:39:20.367Z,25.10
2022-12-20T08:41:48.507Z,25.25
2022-12-20T08:44:16.508Z,23.10
2022-12-20T08:46:44.534Z,28.30
2022-12-20T08:49:12.652Z,27.50
2022-12-20T08:51:42.087Z,27.38
2022-12-20T08:54:10.245Z,25.48
2022-12-20T08:56:38.337Z,24.85
2022-12-20T08:59:06.830Z,26.40
2022-12-20T09:01:34.933Z,31.42
2022-12-20T09:04:03.135Z,33.10
2022-12-20T09:06:31.194Z,29.30
2022-12-20T09:09:01.393Z,29.75
2022-12-20T09:11:29.805Z,28.38
2022-12-20T09:13:59.522Z,36.53
2022-12-20T09:16:29.441Z,29.77
2022-12-20T09:19:04.738Z,33.38
2022-12-20T09:21:34.375Z,28.75
2022-12-20T09:24:03.767Z,28.17
2022-12-20T09:26:32.374Z,22.52
2022-12-20T09:29:01.963Z,27.15
2022-12-20T09:31:30.171Z,21.83
2022-12-20T09:33:59.355Z,21.77
2022-12-20T09:36:29.663Z,23.10
2022-12-20T09:38:58.568Z,22.08
2022-12-20T09:41:37.061Z,23.05
2022-12-20T09:44:12.278Z,22.98
2022-12-20T09:46:41.019Z,20.85
2022-12-20T09:49:15.071Z,24.42
2022-12-20T09:52:12.196Z,21.83
2022-12-20T09:54:49.326Z,23.33
2022-12-20T09:57:28.505Z,22.75
2022-12-20T09:59:57.868Z,21.63
2022-12-20T10:02:56.612Z,23.67
2022-12-20T10:05:19.809Z,23.33
2022-12-20T10:07:55.691Z,25.67
2022-12-20T10:10:40.912Z,27.05
2022-12-20T10:13:24.591Z,28.10
2022-12-20T10:15:57.524Z,29.55
2022-12-20T10:18:50.951Z,28.10
2022-12-20T10:21:25.351Z,30.35
2022-12-20T10:24:02.004Z,28.95
2022-12-20T10:26:31.003Z,28.40
2022-12-20T10:29:00.436Z,27.60
2022-12-20T10:31:28.759Z,28.42
2022-12-20T10:33:57.623Z,28.25
2022-12-20T10:36:27.725Z,26.10
2022-12-20T10:38:57.848Z,27.58
2022-12-20T10:41:27.700Z,41.60
2022-12-20T10:44:00.862Z,31.92
2022-12-20T10:46:41.036Z,28.20
2022-12-20T10:49:27.837Z,26.00
2022-12-20T10:51:58.308Z,27.88
2022-12-20T10:54:31.538Z,23.23
2022-12-20T10:57:01.885Z,21.95
2022-12-20T10:59:35.724Z,26.88
2022-12-20T11:02:21.594Z,23.50
2022-12-20T11:05:00.740Z,22.88
2022-12-20T11:07:31.164Z,23.05
2022-12-20T11:10:00.644Z,29.92
2022-12-20T11:12:28.914Z,24.85
2022-12-20T11:15:34.106Z,23.45
2022-12-20T11:18:07.074Z,25.17
2022-12-20T11:20:42.228Z,25.90
2022-12-20T11:23:19.819Z,26.05
2022-12-20T11:26:09.088Z,24.83
2022-12-20T11:28:50.664Z,28.08
2022-12-20T11:31:32.297Z,22.00
2022-12-20T11:34:18.752Z,20.10
2022-12-20T11:37:04.252Z,26.00
2022-12-20T11:39:39.128Z,29.27
2022-12-20T11:42:15.771Z,32.08
2022-12-20T11:45:03.355Z,32.00
2022-12-20T11:47:55.725Z,31.25
2022-12-20T11:50:46.121Z,29.00
2022-12-20T11:53:21.128Z,25.45
2022-12-20T11:55:53.095Z,26.67
2022-12-20T11:58:26.602Z,28.83
2022-12-20T12:00:58.228Z,29.05
2022-12-20T12:03:34.798Z,30.23
2022-12-20T12:06:07.212Z,29.23
2022-12-20T12:08:42.303Z,31.25
2022-12-20T12:12:04.622Z,29.35
2022-12-20T12:14:08.143Z,24.65
2022-12-20T12:16:40.412Z,26.15
2022-12-20T12:19:13.243Z,25.92
2022-12-20T12:21:45.022Z,27.58
2022-12-20T12:24:22.814Z,31.08
2022-12-20T12:26:51.078Z,23.58
2022-12-20T12:29:21.217Z,24.17
2022-12-20T12:31:55.695Z,32.13
2022-12-20T12:34:48.196Z,32.85
2022-12-20T12:37:41.022Z,30.88
2022-12-20T12:40:58.849Z,31.35
2022-12-20T12:43:48.123Z,29.77
2022-12-20T12:46:20.288Z,26.45
2022-12-20T12:48:55.600Z,27.40
2022-12-20T12:51:30.870Z,24.55
2022-12-20T12:54:15.109Z,17.80
2022-12-20T12:56:46.890Z,23.55
2022-12-20T12:59:48.320Z,23.80
2022-12-20T13:02:33.984Z,21.52
2022-12-20T13:05:25.519Z,29.88
2022-12-20T13:07:55.572Z,24.60
2022-12-20T13:10:57.725Z,20.50
2022-12-20T13:13:26.004Z,15.15
2022-12-20T13:17:02.394Z,15.82
2022-12-20T13:19:17.743Z,14.77
2022-12-20T13:21:48.240Z,14.48
2022-12-20T13:24:58.145Z,16.35
2022-12-20T13:27:35.384Z,18.65
2022-12-20T13:30:25.965Z,19.75
2022-12-20T13:33:22.929Z,18.40
2022-12-20T13:36:06.214Z,18.00
2022-12-20T13:38:56.672Z,19.65
2022-12-20T13:41:35.930Z,19.95
2022-12-20T13:44:29.543Z,18.92
2022-12-20T13:47:02.684Z,19.65
2022-12-20T13:49:35.621Z,19.80
2022-12-20T13:52:28.288Z,19.25
2022-12-20T13:55:00.549Z,23.20
2022-12-20T13:57:33.165Z,36.45
2022-12-20T14:00:07.458Z,31.65
2022-12-20T14:02:43.225Z,28.83
2022-12-20T14:05:19.119Z,28.13
2022-12-20T14:07:49.472Z,30.08
2022-12-20T14:10:21.897Z,27.02
2022-12-20T14:12:52.990Z,27.27
2022-12-20T14:15:30.165Z,26.20
2022-12-20T14:17:58.753Z,23.38
2022-12-20T14:20:31.509Z,26.20
2022-12-20T14:23:05.872Z,24.00
2022-12-20T14:25:38.970Z,25.55
2022-12-20T14:28:26.511Z,23.77
2022-12-20T14:30:56.285Z,22.77
2022-12-20T14:33:32.100Z,23.38
2022-12-20T14:36:09.830Z,23.02
2022-12-20T14:38:39.406Z,23.88
2022-12-20T14:41:33.441Z,27.55
2022-12-20T14:44:14.290Z,33.63
2022-12-20T14:46:49.323Z,26.40
2022-12-20T14:49:22.809Z,22.48
2022-12-20T14:51:51.465Z,22.77
2022-12-20T14:54:56.744Z,24.85
2022-12-20T14:57:18.580Z,21.17
2022-12-20T14:59:59.112Z,21.00
2022-12-20T15:02:36.685Z,19.05
2022-12-20T15:05:10.659Z,18.88
2022-12-20T15:07:42.231Z,17.48
2022-12-20T15:10:10.292Z,22.33
2022-12-20T15:12:42.202Z,19.65
2022-12-20T15:15:30.935Z,15.95
2022-12-20T15:17:58.931Z,16.77
2022-12-20T15:20:27.063Z,16.92
2022-12-20T15:22:55.173Z,17.25
2022-12-20T15:25:23.214Z,16.42
2022-12-20T15:27:51.399Z,17.15
2022-12-20T15:30:21.149Z,17.60
2022-12-20T15:32:55.750Z,16.90
2022-12-20T15:35:25.411Z,19.00
2022-12-20T15:37:53.654Z,22.52
2022-12-20T15:40:21.684Z,21.60
2022-12-20T15:42:49.709Z,29.17
2022-12-20T15:45:17.921Z,31.02
2022-12-20T15:47:47.324Z,22.88
2022-12-20T15:50:15.434Z,23.15
2022-12-20T15:52:44.295Z,28.83
2022-12-20T15:55:12.908Z,19.38
2022-12-20T15:57:41.152Z,20.48
2022-12-20T16:00:13.309Z,23.75
2022-12-20T16:02:41.720Z,20.63
2022-12-20T16:05:14.468Z,22.58
2022-12-20T16:07:42.525Z,22.67
2022-12-20T16:10:14.860Z,21.50
2022-12-20T16:12:43.587Z,24.45
2022-12-20T16:15:21.874Z,29.75
2022-12-20T16:17:50.166Z,30.20
2022-12-20T16:20:20.219Z,19.25
2022-12-20T16:22:49.590Z,19.35
2022-12-20T16:25:26.011Z,18.63
2022-12-20T16:27:54.188Z,17.98
2022-12-20T16:30:22.397Z,17.33
2022-12-20T16:32:50.713Z,19.60
2022-12-20T16:35:29.352Z,18.58
2022-12-20T16:37:58.656Z,19.63
2022-12-20T16:40:28.381Z,17.85
2022-12-20T16:42:57.567Z,18.33
2022-12-20T16:45:28.371Z,16.38
2022-12-20T16:47:57.251Z,11.32
2022-12-20T16:50:27.738Z,11.93
2022-12-20T16:52:56.528Z,14.40
2022-12-20T16:55:26.963Z,15.05
2022-12-20T16:57:55.393Z,14.00
2022-12-20T17:00:25.677Z,13.18
2022-12-20T17:02:54.311Z,10.52
2022-12-20T17:05:29.297Z,11.15
2022-12-20T17:07:58.578Z,13.23
2022-12-20T17:10:27.395Z,16.17
2022-12-20T17:12:55.979Z,13.73
2022-12-20T17:15:26.064Z,12.35
2022-12-20T17:17:54.519Z,12.35
2022-12-20T17:20:24.722Z,10.95
2022-12-20T17:22:55.879Z,10.07
2022-12-20T17:25:26.989Z,10.88
2022-12-20T17:27:55.522Z,12.70
2022-12-20T17:30:24.870Z,10.23
2022-12-20T17:32:53.377Z,9.40
2022-12-20T17:35:28.208Z,10.50
2022-12-20T17:37:58.447Z,13.07
2022-12-20T17:40:28.581Z,13.15
2022-12-20T17:42:56.972Z,12.85
2022-12-20T17:45:31.040Z,13.70
2022-12-20T17:48:00.202Z,17.08
2022-12-20T17:50:28.592Z,17.30
2022-12-20T17:52:57.952Z,13.68
2022-12-20T17:55:27.906Z,15.32
2022-12-20T17:57:56.771Z,14.95
2022-12-20T18:00:31.821Z,15.52
2022-12-20T18:03:04.791Z,17.17
2022-12-20T18:05:32.912Z,13.70
2022-12-20T18:08:02.337Z,12.00
2022-12-20T18:10:30.365Z,12.40
2022-12-20T18:12:58.377Z,11.90
2022-12-20T18:15:26.383Z,11.32
2022-12-20T18:17:54.397Z,10.38
2022-12-20T18:20:23.147Z,8.32
2022-12-20T18:22:51.269Z,7.80
2022-12-20T18:25:20.736Z,11.45
2022-12-20T18:27:48.791Z,14.07
2022-12-20T18:30:17.787Z,12.95
2022-12-20T18:32:45.841Z,13.05
2022-12-20T18:35:13.863Z,14.80
2022-12-20T18:37:41.954Z,12.05
2022-12-20T18:40:10.776Z,12.50
2022-12-20T18:42:40.293Z,11.88
2022-12-20T18:45:11.211Z,11.60
2022-12-20T18:47:39.273Z,11.57
2022-12-20T18:50:11.734Z,8.60
2022-12-20T18:52:42.320Z,12.00
2022-12-20T18:55:12.020Z,8.43
2022-12-20T18:57:41.390Z,11.32
2022-12-20T19:00:10.569Z,10.85
2022-12-20T19:02:38.669Z,9.73
2022-12-20T19:05:07.926Z,9.45
2022-12-20T19:07:35.952Z,9.82
2022-12-20T19:10:04.214Z,10.32
2022-12-20T19:12:32.235Z,10.10
2022-12-20T19:15:01.623Z,9.57
2022-12-20T19:17:29.731Z,8.70
2022-12-20T19:19:57.789Z,7.93
2022-12-20T19:22:25.807Z,7.40
2022-12-20T19:24:55.430Z,7.90
2022-12-20T19:27:23.583Z,8.80
2022-12-20T19:29:51.801Z,8.40
2022-12-20T19:32:21.240Z,9.02
2022-12-20T19:34:49.264Z,8.27
2022-12-20T19:37:18.133Z,8.68
2022-12-20T19:39:46.267Z,9.13
2022-12-20T19:42:29.683Z,8.68
2022-12-20T19:44:57.767Z,8.18
2022-12-20T19:47:27.360Z,8.13
2022-12-20T19:49:55.402Z,8.40
2022-12-20T19:52:28.916Z,8.55
2022-12-20T19:54:57.163Z,8.05
2022-12-20T19:57:25.305Z,8.95
2022-12-20T19:59:55.961Z,9.35
2022-12-20T20:02:24.779Z,8.10
2022-12-20T20:04:54.409Z,8.77
2022-12-20T20:07:22.580Z,9.25
2022-12-20T20:09:50.607Z,9.10
2022-12-20T20:12:18.673Z,8.52
2022-12-20T20:14:46.775Z,8.40
2022-12-20T20:17:15.031Z,7.75
2022-12-20T20:19:43.912Z,8.40
2022-12-20T20:22:17.732Z,9.55
2022-12-20T20:24:49.074Z,8.38
2022-12-20T20:27:17.436Z,7.82
2022-12-20T20:29:45.453Z,7.65
2022-12-20T20:32:13.511Z,7.57
2022-12-20T20:34:41.486Z,9.13
2022-12-20T20:37:09.544Z,8.77
2022-12-20T20:39:38.910Z,7.00
2022-12-20T20:42:07.021Z,7.97
2022-12-20T20:44:35.022Z,8.00
2022-12-20T20:47:03.047Z,8.15
2022-12-20T20:49:31.045Z,8.93
2022-12-20T20:51:59.255Z,9.10
2022-12-20T20:54:27.249Z,7.93
2022-12-20T20:56:56.625Z,7.95
2022-12-20T20:59:24.911Z,8.07
2022-12-20T21:01:53.410Z,7.65
2022-12-20T21:04:21.486Z,7.95
2022-12-20T21:06:49.495Z,8.38
2022-12-20T21:09:17.534Z,8.60
2022-12-20T21:11:45.837Z,7.72
2022-12-20T21:14:16.194Z,8.20
2022-12-20T21:16:44.361Z,7.80
2022-12-20T21:19:12.499Z,6.90
2022-12-20T21:21:40.571Z,8.13
2022-12-20T21:24:08.822Z,7.97
2022-12-20T21:26:36.930Z,11.48
2022-12-20T21:29:05.180Z,7.43
2022-12-20T21:31:34.597Z,10.35
2022-12-20T21:34:02.790Z,7.22
2022-12-20T21:36:30.822Z,6.75
2022-12-20T21:39:00.266Z,6.85
2022-12-20T21:41:30.466Z,7.20
2022-12-20T21:43:59.898Z,5.95
2022-12-20T21:46:30.472Z,6.95
2022-12-20T21:49:00.517Z,6.32
2022-12-20T21:51:29.799Z,6.18
2022-12-20T21:53:59.394Z,6.25
2022-12-20T21:56:28.907Z,5.50
2022-12-20T21:58:57.435Z,6.15
2022-12-20T22:01:26.995Z,6.03
2022-12-20T22:03:56.277Z,6.18
2022-12-20T22:06:27.920Z,5.65
2022-12-20T22:08:57.552Z,5.50
2022-12-20T22:11:26.271Z,5.18
2022-12-20T22:13:55.519Z,5.38
2022-12-20T22:16:26.198Z,5.22
2022-12-20T22:18:55.946Z,4.95
2022-12-20T22:21:28.419Z,5.82
2022-12-20T22:23:57.069Z,5.15
2022-12-20T22:26:26.968Z,4.82
2022-12-20T22:28:57.044Z,5.47
2022-12-20T22:31:25.943Z,4.97
2022-12-20T22:33:55.070Z,4.95
2022-12-20T22:36:23.701Z,5.22
2022-12-20T22:38:54.342Z,4.75
2022-12-20T22:41:24.532Z,5.22
2022-12-20T22:43:52.835Z,4.90
2022-12-20T22:46:21.515Z,5.03
2022-12-20T22:48:49.750Z,5.28
2022-12-20T22:51:19.331Z,5.05
2022-12-20T22:53:48.404Z,4.47
2022-12-20T22:56:19.471Z,4.30
2022-12-20T22:58:47.522Z,3.80
2022-12-20T23:01:18.378Z,4.32
2022-12-20T23:03:47.055Z,4.00
2022-12-20T23:06:17.753Z,3.85
2022-12-20T23:08:45.884Z,4.13
2022-12-20T23:11:36.291Z,3.90
2022-12-20T23:14:22.860Z,4.10
2022-12-20T23:16:51.552Z,3.60
2022-12-20T23:19:19.703Z,3.25
2022-12-20T23:22:05.574Z,3.58
2022-12-20T23:24:33.686Z,3.58
2022-12-20T23:27:03.114Z,3.08
2022-12-20T23:29:32.322Z,2.83
2022-12-20T23:32:00.486Z,3.28
2022-12-20T23:34:28.583Z,2.85
2022-12-20T23:36:56.616Z,2.72
2022-12-20T23:39:24.614Z,3.03
2022-12-20T23:41:52.626Z,3.63
2022-12-20T23:44:22.199Z,3.65
2022-12-20T23:46:50.258Z,3.60
2022-12-20T23:49:18.477Z,3.53
2022-12-20T23:51:46.560Z,3.92
2022-12-20T23:54:15.055Z,4.15
2022-12-20T23:56:43.081Z,3.85
2022-12-20T23:59:11.072Z,4.07
